Time;durP1;ratioP1;P1;durP2;ratioP2;P2;SDS_P1;SDS_P2;PMS_P1;PMS_P2;Temp;Humidity;BMP_temperature;BMP_pressure;BME280_temperature;BME280_humidity;BME280_pressure;Samples;Min_cycle;Max_cycle;Signal;HPM_P1;HPM_P2
2023/08/04 00:02:33;;;;;;;15.15;2.65;;;;;;;17.31;100.00;100011.53;8300092;28;20042;-62
2023/08/04 00:06:34;;;;;;;8.88;2.13;;;;;;;17.22;100.00;100016.31;8305340;28;20034;-63
2023/08/04 00:10:34;;;;;;;8.02;2.13;;;;;;;17.21;100.00;100020.09;8306085;28;20041;-62
2023/08/04 00:14:36;;;;;;;8.10;2.08;;;;;;;17.17;100.00;100021.50;8309052;28;20414;-62
2023/08/04 00:18:36;;;;;;;9.95;1.98;;;;;;;17.03;100.00;100024.28;8311687;28;20037;-61
2023/08/04 00:22:38;;;;;;;6.35;2.30;;;;;;;16.97;100.00;100025.06;8309463;28;20040;-62
2023/08/04 00:26:38;;;;;;;10.88;2.70;;;;;;;17.06;100.00;100023.91;8311999;28;20034;-63
2023/08/04 00:30:38;;;;;;;12.95;2.25;;;;;;;17.08;100.00;100032.75;8305174;28;20037;-60
2023/08/04 00:34:39;;;;;;;12.52;1.98;;;;;;;17.11;100.00;100015.97;8311261;28;20505;-60
2023/08/04 00:38:39;;;;;;;7.72;1.88;;;;;;;17.23;100.00;100020.72;8310495;28;20034;-60
2023/08/04 00:42:40;;;;;;;5.70;2.28;;;;;;;17.32;100.00;100027.75;8311434;28;20041;-60
2023/08/04 00:46:41;;;;;;;8.77;1.73;;;;;;;17.33;100.00;100031.34;8311150;28;20040;-60
2023/08/04 00:50:42;;;;;;;12.43;2.33;;;;;;;17.32;100.00;100035.09;8307998;28;20065;-60
2023/08/04 00:54:45;;;;;;;9.77;2.40;;;;;;;17.25;100.00;100020.53;8311205;28;20107;-60
2023/08/04 00:58:45;;;;;;;7.97;2.15;;;;;;;17.22;100.00;100018.19;8311443;28;20045;-60
2023/08/04 01:02:47;;;;;;;7.72;2.33;;;;;;;17.22;100.00;100029.09;8308291;28;20038;-60
2023/08/04 01:07:16;;;;;;;9.25;2.00;;;;;;;17.23;100.00;100033.56;8310763;28;20038;-60
2023/08/04 01:11:19;;;;;;;10.32;2.40;;;;;;;17.26;100.00;100044.09;8309869;28;20049;-60
2023/08/04 01:15:24;;;;;;;12.10;2.20;;;;;;;17.32;100.00;100048.75;8310817;28;20088;-60
2023/08/04 01:19:25;;;;;;;13.63;3.38;;;;;;;17.25;100.00;100045.09;8307916;28;20299;-61
2023/08/04 01:23:25;;;;;;;7.03;2.88;;;;;;;17.17;100.00;100048.00;8310982;28;20046;-61
2023/08/04 01:27:32;;;;;;;13.00;3.58;;;;;;;17.15;100.00;100050.91;8309377;28;20510;-57
2023/08/04 01:31:33;;;;;;;13.80;3.97;;;;;;;17.19;100.00;100056.81;8304888;28;20447;-56
2023/08/04 01:35:34;;;;;;;10.40;3.47;;;;;;;17.23;100.00;100052.69;8309049;28;20632;-57
2023/08/04 01:39:37;;;;;;;12.57;3.97;;;;;;;17.27;100.00;100053.97;8310239;28;20451;-59
2023/08/04 01:43:37;;;;;;;17.38;3.60;;;;;;;17.30;100.00;100056.31;8308795;28;20038;-59
2023/08/04 01:47:39;;;;;;;13.20;4.22;;;;;;;17.36;100.00;100059.09;8308135;28;20037;-59
2023/08/04 01:51:39;;;;;;;15.88;4.93;;;;;;;17.35;100.00;100062.88;8307370;28;20450;-59
2023/08/04 01:55:39;;;;;;;15.45;3.63;;;;;;;17.39;100.00;100063.34;8309680;28;20033;-61
2023/08/04 01:59:40;;;;;;;16.02;3.78;;;;;;;17.29;100.00;100068.25;8309222;28;20091;-61
2023/08/04 02:03:41;;;;;;;15.20;3.50;;;;;;;17.34;100.00;100060.34;8304229;28;20070;-61
2023/08/04 02:07:41;;;;;;;13.75;4.35;;;;;;;17.30;100.00;100059.03;8309397;28;20038;-61
2023/08/04 02:11:42;;;;;;;12.82;4.57;;;;;;;17.36;100.00;100063.72;8307696;28;20038;-61
2023/08/04 02:15:42;;;;;;;17.02;3.60;;;;;;;17.27;100.00;100064.91;8307725;28;20502;-61
2023/08/04 02:19:43;;;;;;;12.68;4.13;;;;;;;17.33;100.00;100064.13;8307561;28;20551;-61
2023/08/04 02:23:43;;;;;;;13.30;5.03;;;;;;;17.20;100.00;100064.00;8310699;28;20074;-61
2023/08/04 02:27:46;;;;;;;14.15;3.20;;;;;;;17.12;100.00;100072.28;8307235;28;20041;-61
2023/08/04 02:31:47;;;;;;;10.48;4.15;;;;;;;17.04;100.00;100073.25;8304003;28;20041;-61
2023/08/04 02:35:47;;;;;;;13.55;3.47;;;;;;;17.03;100.00;100073.44;8307432;28;20091;-61
2023/08/04 02:39:47;;;;;;;10.13;4.28;;;;;;;16.90;100.00;100070.56;8308011;28;20042;-61
2023/08/04 02:43:48;;;;;;;11.52;3.60;;;;;;;16.85;100.00;100081.22;8306631;28;20037;-61
2023/08/04 02:47:48;;;;;;;14.80;4.40;;;;;;;16.77;100.00;100089.53;8306510;28;20084;-61
2023/08/04 02:51:49;;;;;;;14.10;4.80;;;;;;;16.72;100.00;100087.38;8306068;28;20499;-60
2023/08/04 02:55:49;;;;;;;15.98;4.88;;;;;;;16.61;100.00;100086.97;8306351;28;20046;-61
2023/08/04 02:59:50;;;;;;;13.57;4.65;;;;;;;16.65;100.00;100091.06;8308277;28;20042;-60
2023/08/04 03:03:50;;;;;;;13.82;5.05;;;;;;;16.68;100.00;100090.66;8306790;28;20045;-60
2023/08/04 03:07:51;;;;;;;14.35;4.78;;;;;;;16.73;100.00;100088.19;8307481;28;20125;-61
2023/08/04 03:11:51;;;;;;;15.15;4.80;;;;;;;16.73;100.00;100093.66;8307029;28;20045;-61
2023/08/04 03:16:01;;;;;;;21.30;4.90;;;;;;;16.78;100.00;100097.53;8306058;28;20094;-60
2023/08/04 03:20:01;;;;;;;20.63;5.97;;;;;;;16.81;100.00;100101.75;8306391;28;20037;-61
2023/08/04 03:24:02;;;;;;;12.95;4.03;;;;;;;16.82;100.00;100109.75;8306601;28;20044;-61
2023/08/04 03:28:03;;;;;;;18.85;4.68;;;;;;;16.84;100.00;100113.13;8306416;28;20049;-60
2023/08/04 03:32:03;;;;;;;16.73;4.32;;;;;;;16.93;100.00;100114.72;8303187;28;20046;-61
2023/08/04 03:36:04;;;;;;;12.65;4.60;;;;;;;16.96;100.00;100116.25;8305572;28;20043;-61
2023/08/04 03:40:05;;;;;;;15.98;4.43;;;;;;;16.93;100.00;100133.00;8306568;28;20518;-58
2023/08/04 03:44:06;;;;;;;21.73;4.50;;;;;;;16.92;100.00;100126.69;8306108;28;20514;-58
2023/08/04 03:48:06;;;;;;;13.95;4.65;;;;;;;16.97;100.00;100123.38;8312037;28;20077;-58
2023/08/04 03:52:07;;;;;;;19.70;4.60;;;;;;;16.98;100.00;100130.53;8311206;28;20052;-58
2023/08/04 03:56:07;;;;;;;14.98;4.95;;;;;;;17.01;100.00;100127.41;8308437;28;20042;-58
2023/08/04 04:00:09;;;;;;;11.55;4.25;;;;;;;17.04;100.00;100140.69;8312911;28;20533;-59
2023/08/04 04:04:15;;;;;;;16.55;4.82;;;;;;;17.08;100.00;100125.63;8307159;28;20041;-61
2023/08/04 04:08:16;;;;;;;12.63;4.35;;;;;;;17.11;100.00;100130.72;8313294;28;20057;-61
2023/08/04 04:12:16;;;;;;;13.80;4.20;;;;;;;17.09;100.00;100139.09;8312531;28;20033;-61
2023/08/04 04:16:17;;;;;;;11.10;4.78;;;;;;;17.10;100.00;100139.94;8308305;28;20491;-61
2023/08/04 04:20:17;;;;;;;11.48;3.92;;;;;;;17.09;100.00;100139.09;8307735;28;20041;-61
2023/08/04 04:24:18;;;;;;;12.27;4.15;;;;;;;17.08;100.00;100150.22;8313939;28;20038;-61
2023/08/04 04:28:19;;;;;;;9.80;4.53;;;;;;;17.09;100.00;100150.03;8313951;28;20041;-60
2023/08/04 04:32:20;;;;;;;21.38;4.68;;;;;;;17.14;100.00;100157.66;8304919;28;20034;-60
2023/08/04 04:36:20;;;;;;;14.18;4.15;;;;;;;17.08;100.00;100152.94;8308588;28;20137;-60
2023/08/04 04:40:21;;;;;;;13.18;3.83;;;;;;;17.13;100.00;100166.84;8309982;28;20060;-61
2023/08/04 04:44:22;;;;;;;11.95;4.03;;;;;;;17.18;100.00;100156.22;8309809;28;20463;-61
2023/08/04 04:48:23;;;;;;;8.68;3.70;;;;;;;17.19;100.00;100168.81;8308178;28;20038;-61
2023/08/04 04:52:35;;;;;;;11.20;4.53;;;;;;;17.22;100.00;100161.09;8307796;28;20038;-58
2023/08/04 04:56:37;;;;;;;13.40;4.70;;;;;;;17.30;100.00;100174.63;8308121;28;20033;-59
2023/08/04 05:00:38;;;;;;;12.90;4.80;;;;;;;17.43;100.00;100184.94;8304239;28;20402;-62
2023/08/04 05:04:39;;;;;;;16.52;4.85;;;;;;;17.46;100.00;100179.06;8307498;28;20092;-63
2023/08/04 05:08:39;;;;;;;64.70;8.98;;;;;;;17.49;100.00;100190.47;8306645;28;20064;-61
2023/08/04 05:12:40;;;;;;;64.38;9.73;;;;;;;17.53;100.00;100185.44;8306519;28;20423;-61
2023/08/04 05:16:42;;;;;;;17.83;4.57;;;;;;;17.56;100.00;100185.06;8301995;28;20034;-61
2023/08/04 05:20:45;;;;;;;13.90;4.65;;;;;;;17.58;100.00;100186.59;8303192;28;20038;-61
2023/08/04 05:24:45;;;;;;;14.75;4.80;;;;;;;17.56;100.00;100185.06;8308784;28;20541;-61
2023/08/04 05:28:46;;;;;;;130.30;20.02;;;;;;;17.52;100.00;100197.44;8306289;28;20403;-61
2023/08/04 05:32:46;;;;;;;33.30;6.82;;;;;;;17.47;100.00;100194.41;8303223;28;20038;-62
2023/08/04 05:36:47;;;;;;;308.52;43.45;;;;;;;17.54;100.00;100181.69;8305706;28;20590;-61
2023/08/04 05:40:49;;;;;;;56.33;11.15;;;;;;;17.45;100.00;100193.78;8306898;28;20041;-61
2023/08/04 05:44:49;;;;;;;60.75;10.73;;;;;;;17.63;100.00;100194.22;8304540;28;20053;-61
2023/08/04 05:48:50;;;;;;;13.93;5.03;;;;;;;17.69;100.00;100196.16;8308550;28;20071;-61
2023/08/04 05:52:50;;;;;;;34.03;7.47;;;;;;;17.77;100.00;100204.22;8304773;28;20041;-62
2023/08/04 05:56:51;;;;;;;136.95;23.10;;;;;;;17.89;100.00;100213.63;8306974;28;20072;-61
2023/08/04 06:00:51;;;;;;;9.63;4.22;;;;;;;17.90;100.00;100220.78;8303841;28;20046;-61
2023/08/04 06:04:52;;;;;;;10.25;5.15;;;;;;;17.90;100.00;100226.25;8305788;28;20451;-61
2023/08/04 06:08:53;;;;;;;17.00;4.15;;;;;;;17.97;100.00;100226.31;8303836;28;20045;-61
2023/08/04 06:12:53;;;;;;;26.55;6.18;;;;;;;17.95;100.00;100229.25;8305145;28;20265;-62
2023/08/04 06:16:54;;;;;;;19.40;4.40;;;;;;;17.98;100.00;100234.34;8305664;28;20034;-61
2023/08/04 06:20:54;;;;;;;16.38;4.30;;;;;;;18.04;100.00;100233.56;8306454;28;20125;-59
2023/08/04 06:24:55;;;;;;;10.70;3.90;;;;;;;18.05;100.00;100240.72;8307762;28;20518;-59
2023/08/04 06:28:55;;;;;;;11.88;3.88;;;;;;;18.08;100.00;100243.06;8306660;28;20843;-58
2023/08/04 06:32:56;;;;;;;15.75;4.07;;;;;;;18.13;100.00;100253.41;8302122;28;20049;-60
2023/08/04 06:36:57;;;;;;;12.75;4.40;;;;;;;18.15;100.00;100257.66;8304679;28;20046;-58
2023/08/04 06:40:59;;;;;;;16.13;4.00;;;;;;;18.18;100.00;100261.91;8305208;28;20173;-61
2023/08/04 06:45:01;;;;;;;16.10;4.45;;;;;;;18.23;100.00;100263.00;8305037;28;20049;-61
2023/08/04 06:49:01;;;;;;;15.35;4.32;;;;;;;18.37;100.00;100266.75;8305047;28;20069;-61
2023/08/04 06:53:02;;;;;;;9.32;3.53;;;;;;;18.35;100.00;100271.50;8304075;28;20594;-61
2023/08/04 06:57:03;;;;;;;14.50;4.82;;;;;;;18.42;100.00;100275.22;8305532;28;20072;-61
2023/08/04 07:01:03;;;;;;;11.63;4.20;;;;;;;18.55;100.00;100281.66;8304675;28;20049;-61
2023/08/04 07:05:04;;;;;;;15.32;4.25;;;;;;;18.66;100.00;100283.84;8305429;28;20034;-61
2023/08/04 07:09:04;;;;;;;11.15;4.10;;;;;;;18.66;100.00;100286.59;8304560;28;20053;-61
2023/08/04 07:13:05;;;;;;;19.08;4.55;;;;;;;18.65;100.00;100287.63;8326373;28;20204;-61
2023/08/04 07:17:05;;;;;;;10.65;4.22;;;;;;;18.62;100.00;100296.25;8303475;28;20052;-61
2023/08/04 07:21:09;;;;;;;8.57;3.95;;;;;;;18.57;100.00;100312.41;8302723;28;20049;-62
2023/08/04 07:25:10;;;;;;;18.10;5.03;;;;;;;18.60;100.00;100301.06;8308045;28;20069;-61
2023/08/04 07:29:10;;;;;;;11.50;3.67;;;;;;;18.62;100.00;100301.72;8304448;28;20045;-61
2023/08/04 07:33:11;;;;;;;16.35;4.50;;;;;;;18.57;100.00;100301.47;8302405;28;20136;-61
2023/08/04 07:37:11;;;;;;;16.02;5.40;;;;;;;18.54;100.00;100301.84;8304433;28;20486;-61
2023/08/04 07:41:21;;;;;;;14.50;5.22;;;;;;;18.54;100.00;100296.38;8303884;28;20124;-61
2023/08/04 07:45:21;;;;;;;17.60;5.43;;;;;;;18.59;100.00;100298.53;8304023;28;20041;-61
2023/08/04 07:49:22;;;;;;;17.85;5.05;;;;;;;18.66;100.00;100308.50;8300774;28;20050;-61
2023/08/04 07:53:22;;;;;;;11.18;4.65;;;;;;;18.94;100.00;100300.31;8304236;28;20037;-61
2023/08/04 07:57:22;;;;;;;11.43;3.75;;;;;;;19.27;100.00;100304.13;8305383;28;20041;-61
2023/08/04 08:01:23;;;;;;;8.02;3.88;;;;;;;19.37;100.00;100305.44;8319567;28;20041;-61
2023/08/04 08:05:23;;;;;;;11.38;3.72;;;;;;;19.40;100.00;100305.03;8299534;28;20360;-61
2023/08/04 08:09:24;;;;;;;12.45;4.03;;;;;;;19.32;98.88;100313.44;8301870;28;20052;-61
2023/08/04 08:13:25;;;;;;;13.70;4.35;;;;;;;19.23;100.00;100309.16;8318708;28;20124;-62
2023/08/04 08:17:25;;;;;;;9.20;3.88;;;;;;;19.35;98.72;100318.53;8303313;28;20041;-61
2023/08/04 08:21:26;;;;;;;12.48;3.80;;;;;;;19.64;97.43;100314.66;8301298;28;20050;-61
2023/08/04 08:25:26;;;;;;;6.95;2.83;;;;;;;19.83;97.00;100322.16;8306802;28;20052;-61
2023/08/04 08:29:27;;;;;;;15.63;3.63;;;;;;;19.96;95.78;100326.81;8303268;28;20434;-62
2023/08/04 08:33:28;;;;;;;12.30;3.70;;;;;;;19.96;96.77;100327.69;8307279;28;20037;-61
2023/08/04 08:37:28;;;;;;;13.63;3.22;;;;;;;20.00;93.10;100339.09;8307579;28;20041;-61
2023/08/04 08:41:29;;;;;;;1356.55;223.50;;;;;;;20.02;95.41;100336.97;8308959;28;20442;-59
2023/08/04 08:45:29;;;;;;;17.55;3.60;;;;;;;20.07;96.98;100339.97;8323347;28;20451;-58
2023/08/04 08:49:36;;;;;;;5.32;2.53;;;;;;;19.96;95.20;100335.91;8306282;28;20492;-59
2023/08/04 08:53:37;;;;;;;15.68;3.30;;;;;;;20.09;93.63;100348.81;8307317;28;20060;-61
2023/08/04 08:57:38;;;;;;;11.93;3.05;;;;;;;20.12;92.90;100346.56;8309110;28;20245;-59
2023/08/04 09:01:39;;;;;;;17.77;3.83;;;;;;;20.17;94.95;100352.28;8300303;28;20084;-59
2023/08/04 09:05:40;;;;;;;7.40;2.97;;;;;;;20.29;95.75;100344.28;8306488;28;20037;-59
2023/08/04 09:09:40;;;;;;;15.40;3.65;;;;;;;20.38;95.07;100359.53;8306362;28;20403;-59
2023/08/04 09:13:43;;;;;;;11.10;2.97;;;;;;;20.47;92.44;100361.03;8305748;28;20040;-59
2023/08/04 09:17:44;;;;;;;10.32;2.65;;;;;;;20.65;92.36;100358.53;8304852;28;20043;-60
2023/08/04 09:21:45;;;;;;;18.88;3.22;;;;;;;20.76;89.59;100368.88;8307729;28;20119;-57
2023/08/04 09:25:53;;;;;;;10.25;2.63;;;;;;;20.72;88.17;100367.63;8305515;28;20042;-58
2023/08/04 09:29:59;;;;;;;12.00;2.47;;;;;;;20.70;89.07;100353.22;8303930;28;20072;-57
2023/08/04 09:33:59;;;;;;;6.03;2.00;;;;;;;21.06;93.63;100362.81;8299695;28;20061;-58
2023/08/04 09:37:59;;;;;;;7.75;2.10;;;;;;;21.18;87.08;100358.38;8301084;28;20041;-57
2023/08/04 09:42:00;;;;;;;4.13;1.73;;;;;;;21.27;88.25;100361.72;8304458;28;20124;-57
2023/08/04 09:46:05;;;;;;;5.72;1.92;;;;;;;21.46;84.90;100366.34;8304058;28;20539;-58
2023/08/04 09:50:10;;;;;;;7.07;1.85;;;;;;;21.46;87.94;100371.84;8301776;28;20068;-60
2023/08/04 09:54:11;;;;;;;9.15;2.22;;;;;;;21.21;86.13;100373.59;8303737;28;20095;-60
2023/08/04 09:58:11;;;;;;;4.65;2.17;;;;;;;21.28;88.15;100374.41;8304888;28;20042;-60
2023/08/04 10:02:13;;;;;;;7.05;1.75;;;;;;;20.91;86.41;100372.28;8304737;28;20038;-60
2023/08/04 10:06:15;;;;;;;7.40;1.80;;;;;;;20.68;86.46;100382.84;8304327;28;20558;-60
2023/08/04 10:10:16;;;;;;;6.88;2.45;;;;;;;20.68;84.75;100375.41;8303695;28;20092;-62
2023/08/04 10:14:17;;;;;;;6.03;2.13;;;;;;;20.90;86.28;100373.34;8305027;28;20037;-61
2023/08/04 10:18:17;;;;;;;7.53;2.10;;;;;;;20.94;84.24;100369.09;8305392;28;20625;-63
2023/08/04 10:22:20;;;;;;;11.80;2.00;;;;;;;21.06;86.05;100375.69;8304480;28;20041;-63
2023/08/04 10:26:20;;;;;;;7.20;2.42;;;;;;;21.55;84.69;100370.56;8306555;28;20029;-63
2023/08/04 10:30:22;;;;;;;4.35;1.95;;;;;;;22.54;78.31;100375.50;8305775;28;20261;-63
2023/08/04 10:34:35;;;;;;;3.65;1.70;;;;;;;24.79;69.98;100362.53;8303613;28;20041;-64
2023/08/04 10:38:45;;;;;;;6.80;1.58;;;;;;;24.31;70.22;100377.47;8303803;28;20049;-62
2023/08/04 10:43:06;;;;;;;4.78;1.48;;;;;;;23.24;71.33;100373.53;8305113;28;20033;-61
2023/08/04 10:47:07;;;;;;;4.95;1.90;;;;;;;22.66;73.88;100375.66;8303149;28;20103;-61
2023/08/04 10:51:08;;;;;;;9.40;2.17;;;;;;;23.57;74.13;100382.34;8302069;28;20596;-61
2023/08/04 10:55:12;;;;;;;6.32;1.60;;;;;;;26.39;62.38;100376.63;8303150;28;20625;-61
2023/08/04 10:59:12;;;;;;;5.45;1.45;;;;;;;27.73;59.13;100375.69;8301797;28;20091;-62
2023/08/04 11:03:30;;;;;;;4.50;1.08;;;;;;;27.52;57.58;100376.47;8302710;28;20041;-61
2023/08/04 11:07:31;;;;;;;6.78;1.10;;;;;;;28.11;55.99;100375.66;8304721;28;20046;-62
2023/08/04 11:11:33;;;;;;;4.03;0.90;;;;;;;28.99;54.49;100370.59;8303456;28;20041;-62
2023/08/04 11:15:42;;;;;;;4.97;1.17;;;;;;;26.56;59.15;100369.16;8304593;28;20061;-62
2023/08/04 11:19:44;;;;;;;6.80;1.92;;;;;;;24.71;65.56;100384.16;8316536;28;20117;-59
2023/08/04 11:23:44;;;;;;;3.75;1.83;;;;;;;23.75;65.74;100376.84;8308381;28;20540;-58
2023/08/04 11:27:45;;;;;;;3.53;1.00;;;;;;;26.07;58.87;100375.38;8303680;28;20400;-59
2023/08/04 11:31:47;;;;;;;2.80;1.25;;;;;;;28.68;54.40;100368.63;8307512;28;20060;-60
2023/08/04 11:35:48;;;;;;;5.38;1.80;;;;;;;28.85;53.62;100386.06;8319042;28;20041;-60
2023/08/04 11:39:48;;;;;;;2.40;1.08;;;;;;;28.27;53.95;100383.13;8318745;28;20120;-60
2023/08/04 11:43:49;;;;;;;5.20;1.30;;;;;;;26.08;58.01;100370.69;8319175;28;20156;-61
2023/08/04 11:47:53;;;;;;;2.55;1.30;;;;;;;25.02;61.29;100386.63;8315806;28;20141;-61
2023/08/04 11:51:54;;;;;;;1.63;0.85;;;;;;;24.55;59.06;100379.25;8288682;28;20077;-62
2023/08/04 11:56:01;;;;;;;2.95;1.20;;;;;;;26.40;57.25;100381.06;8314086;28;20045;-60
2023/08/04 12:00:02;;;;;;;2.45;0.98;;;;;;;29.05;52.74;100374.28;8306401;28;20044;-61
2023/08/04 12:04:25;;;;;;;4.38;1.17;;;;;;;28.46;50.22;100381.72;8289690;28;20744;-60
2023/08/04 12:08:25;;;;;;;1.35;0.80;;;;;;;27.20;50.97;100392.03;8308573;28;20042;-63
2023/08/04 12:12:36;;;;;;;2.72;1.08;;;;;;;25.57;57.05;100393.59;8310387;28;20049;-62
2023/08/04 12:17:00;;;;;;;5.68;1.30;;;;;;;25.40;58.96;100400.91;8307968;28;20034;-61
2023/08/04 12:21:01;;;;;;;2.78;1.20;;;;;;;24.99;57.86;100398.19;8306590;28;20041;-62
2023/08/04 12:25:03;;;;;;;3.72;1.30;;;;;;;24.57;59.85;100388.13;8314529;28;20049;-62
2023/08/04 12:29:04;;;;;;;5.10;1.60;;;;;;;24.26;62.96;100399.41;8306627;28;20038;-59
2023/08/04 12:33:04;;;;;;;2.40;1.58;;;;;;;24.14;62.33;100398.50;8310308;28;20128;-59
2023/08/04 12:37:05;;;;;;;3.33;1.60;;;;;;;24.28;63.16;100394.50;8310703;28;20117;-59
2023/08/04 12:41:06;;;;;;;2.53;1.77;;;;;;;24.53;62.50;100392.47;8313031;28;20034;-59
2023/08/04 12:45:06;;;;;;;2.33;1.90;;;;;;;24.42;63.93;100399.63;8313425;28;20038;-60
2023/08/04 12:49:07;;;;;;;7.38;2.35;;;;;;;24.05;63.78;100399.88;8315732;28;20061;-60
2023/08/04 12:53:08;;;;;;;3.08;1.55;;;;;;;23.43;64.29;100416.66;8315377;28;20457;-59
2023/08/04 12:57:09;;;;;;;3.25;1.45;;;;;;;23.21;63.65;100405.97;8315743;28;20053;-59
2023/08/04 13:01:09;;;;;;;4.20;1.50;;;;;;;23.46;63.05;100405.16;8311066;28;20115;-59
2023/08/04 13:05:10;;;;;;;2.85;1.30;;;;;;;23.67;62.52;100402.00;8314952;28;20087;-59
2023/08/04 13:09:10;;;;;;;4.40;1.60;;;;;;;23.78;64.17;100395.72;8314889;28;20135;-60
2023/08/04 13:13:11;;;;;;;2.75;1.65;;;;;;;24.09;62.72;100385.38;8305251;28;20461;-59
2023/08/04 13:17:12;;;;;;;4.63;1.60;;;;;;;24.44;62.68;100399.41;8293082;28;20038;-59
2023/08/04 13:21:12;;;;;;;2.72;1.42;;;;;;;24.54;62.89;100383.09;8289712;28;20061;-59
2023/08/04 13:25:13;;;;;;;2.15;1.52;;;;;;;24.48;60.41;100384.00;8291363;28;20128;-60
2023/08/04 13:29:13;;;;;;;2.83;1.10;;;;;;;24.18;62.86;100386.75;8291684;28;20511;-59
2023/08/04 13:33:14;;;;;;;7.57;1.70;;;;;;;24.45;63.35;100384.47;8292392;28;20115;-59
2023/08/04 13:37:14;;;;;;;3.45;1.77;;;;;;;24.45;62.91;100390.00;8292461;28;20049;-60
2023/08/04 13:41:15;;;;;;;3.45;1.92;;;;;;;24.45;63.27;100388.09;8290908;28;20034;-58
2023/08/04 13:45:15;;;;;;;2.10;1.30;;;;;;;24.52;62.55;100401.84;8291847;28;20503;-58
2023/08/04 13:49:15;;;;;;;3.03;1.75;;;;;;;24.31;63.86;100403.16;8291976;28;20037;-59
2023/08/04 13:53:16;;;;;;;3.15;1.73;;;;;;;24.38;62.65;100397.56;8291791;28;20297;-59
2023/08/04 13:57:16;;;;;;;1.90;1.13;;;;;;;24.25;60.66;100395.81;8291837;28;20458;-59
2023/08/04 14:01:17;;;;;;;3.47;1.80;;;;;;;24.34;61.47;100408.22;8291430;28;20125;-58
2023/08/04 14:05:17;;;;;;;3.38;1.30;;;;;;;24.20;63.64;100397.56;8292039;28;20038;-59
2023/08/04 14:09:18;;;;;;;3.40;1.40;;;;;;;24.17;62.07;100392.50;8287223;28;20038;-59
2023/08/04 14:13:19;;;;;;;1.95;1.30;;;;;;;24.44;64.95;100391.09;8289545;28;20037;-60
2023/08/04 14:17:21;;;;;;;4.80;1.70;;;;;;;24.44;61.72;100388.34;8290971;28;20057;-58
2023/08/04 14:21:21;;;;;;;5.90;1.55;;;;;;;24.31;64.07;100388.53;8290926;28;20491;-58
2023/08/04 14:25:22;;;;;;;2.80;1.55;;;;;;;24.29;62.58;100385.13;8289862;28;20399;-59
2023/08/04 14:29:22;;;;;;;2.42;1.70;;;;;;;24.19;62.97;100391.22;8291111;28;20034;-58
2023/08/04 14:33:23;;;;;;;3.30;1.60;;;;;;;24.39;62.85;100393.72;8288599;28;20189;-57
2023/08/04 14:37:23;;;;;;;3.05;1.50;;;;;;;24.33;62.67;100397.41;8288955;28;20034;-60
2023/08/04 14:41:24;;;;;;;2.97;1.35;;;;;;;24.51;61.54;100389.06;8289752;28;20037;-58
2023/08/04 14:45:30;;;;;;;4.63;1.70;;;;;;;24.47;65.64;100401.69;8290867;28;20046;-59
2023/08/04 14:49:31;;;;;;;4.70;1.20;;;;;;;24.25;65.62;100417.09;8286090;28;20496;-60
2023/08/04 14:53:31;;;;;;;7.75;1.13;;;;;;;23.67;67.25;100413.03;8290448;28;20518;-57
2023/08/04 14:57:32;;;;;;;4.72;1.10;;;;;;;23.31;68.64;100424.84;8289065;28;20080;-56
2023/08/04 15:01:32;;;;;;;1.90;1.10;;;;;;;23.14;72.12;100435.53;8265481;28;20065;-59
2023/08/04 15:05:33;;;;;;;2.22;1.10;;;;;;;23.03;73.80;100433.50;8279940;28;20046;-59
2023/08/04 15:09:33;;;;;;;1.85;0.80;;;;;;;22.74;73.82;100445.16;8286881;28;20034;-58
2023/08/04 15:13:34;;;;;;;2.70;0.90;;;;;;;22.59;73.02;100446.50;8288566;28;20061;-58
2023/08/04 15:17:37;;;;;;;3.75;0.90;;;;;;;22.33;73.73;100452.97;8283128;28;20552;-59
2023/08/04 15:21:37;;;;;;;1.13;0.85;;;;;;;22.04;73.00;100458.13;8286718;28;20064;-59
2023/08/04 15:25:38;;;;;;;2.90;1.13;;;;;;;21.80;75.87;100456.91;8288566;28;20065;-59
2023/08/04 15:29:38;;;;;;;2.25;1.23;;;;;;;21.58;76.09;100449.09;8288984;28;20049;-58
2023/08/04 15:33:38;;;;;;;6.80;1.92;;;;;;;21.51;78.94;100448.25;8289569;28;20041;-58
2023/08/04 15:37:39;;;;;;;2.72;1.02;;;;;;;21.37;81.95;100450.16;8288529;28;20044;-58
2023/08/04 15:41:39;;;;;;;2.05;1.30;;;;;;;21.21;86.12;100439.59;8288912;28;20045;-59
2023/08/04 15:45:40;;;;;;;2.97;1.27;;;;;;;21.07;86.93;100432.38;8289490;28;20045;-59
2023/08/04 15:49:40;;;;;;;5.82;1.40;;;;;;;21.29;86.37;100448.47;8289307;28;20901;-62
2023/08/04 15:53:41;;;;;;;0.80;0.45;;;;;;;21.34;74.93;100445.06;8289439;28;20530;-63
2023/08/04 15:57:41;;;;;;;1.95;0.57;;;;;;;21.33;73.53;100454.41;8261132;28;20084;-60
2023/08/04 16:01:41;;;;;;;3.50;0.40;;;;;;;21.08;75.90;100456.06;8275728;28;20133;-58
2023/08/04 16:05:43;;;;;;;2.88;0.55;;;;;;;21.04;77.12;100460.28;8286464;28;20479;-58
2023/08/04 16:09:44;;;;;;;1.27;0.50;;;;;;;21.16;77.92;100459.47;8285511;28;20490;-60
2023/08/04 16:13:44;;;;;;;4.00;0.60;;;;;;;21.26;74.86;100468.13;8283231;28;20037;-60
2023/08/04 16:17:45;;;;;;;0.60;0.35;;;;;;;21.31;75.33;100467.50;8283668;28;20813;-60
2023/08/04 16:21:45;;;;;;;0.57;0.40;;;;;;;21.51;74.20;100471.13;8286612;28;20385;-60
2023/08/04 16:25:45;;;;;;;4.55;0.77;;;;;;;22.05;72.92;100476.38;8288092;28;20129;-59
2023/08/04 16:29:46;;;;;;;3.50;0.70;;;;;;;22.16;75.87;100478.44;8287371;28;20038;-60
2023/08/04 16:33:49;;;;;;;2.45;0.95;;;;;;;22.30;74.24;100483.72;8287730;28;20253;-60
2023/08/04 16:37:50;;;;;;;1.75;0.63;;;;;;;22.23;75.67;100496.63;8287288;28;20038;-60
2023/08/04 16:41:51;;;;;;;3.40;0.77;;;;;;;22.03;78.34;100501.38;8286868;28;20558;-60
2023/08/04 16:45:53;;;;;;;2.42;0.75;;;;;;;21.74;79.56;100485.28;8287067;28;20515;-60
2023/08/04 16:49:54;;;;;;;2.72;1.20;;;;;;;21.49;81.08;100492.47;8290562;28;20132;-60
2023/08/04 16:53:55;;;;;;;2.10;1.00;;;;;;;21.31;82.32;100490.38;8289428;28;20030;-60
2023/08/04 16:57:56;;;;;;;2.00;1.05;;;;;;;21.23;84.08;100486.97;8291363;28;20382;-60
2023/08/04 17:01:56;;;;;;;6.10;1.15;;;;;;;21.21;84.97;100495.44;8293278;28;20499;-60
2023/08/04 17:05:57;;;;;;;2.55;1.00;;;;;;;21.14;86.59;100496.47;8291148;28;20408;-60
2023/08/04 17:10:01;;;;;;;5.00;1.20;;;;;;;21.10;88.23;100509.78;8291326;28;20439;-58
2023/08/04 17:14:01;;;;;;;3.22;1.02;;;;;;;21.04;90.10;100498.78;8288680;28;20249;-58
2023/08/04 17:18:02;;;;;;;1.40;0.75;;;;;;;20.80;91.43;100504.84;8297869;28;20582;-59
2023/08/04 17:22:03;;;;;;;2.80;1.15;;;;;;;20.70;93.36;100518.09;8291999;28;20281;-58
2023/08/04 17:26:03;;;;;;;4.60;1.10;;;;;;;20.66;95.36;100516.81;8293052;28;20046;-58
2023/08/04 17:30:05;;;;;;;2.83;0.82;;;;;;;20.49;94.54;100518.25;8291749;28;20041;-59
2023/08/04 17:34:06;;;;;;;2.70;1.15;;;;;;;20.55;96.39;100515.50;8292299;28;20590;-62
2023/08/04 17:38:07;;;;;;;1.35;1.00;;;;;;;20.66;93.71;100528.66;8291939;28;20038;-60
2023/08/04 17:42:07;;;;;;;3.20;1.10;;;;;;;20.73;94.91;100517.69;8288225;28;20045;-62
2023/08/04 17:46:08;;;;;;;2.67;1.00;;;;;;;20.89;92.03;100517.34;8291830;28;20038;-62
2023/08/04 17:50:09;;;;;;;5.00;1.13;;;;;;;20.99;91.16;100534.31;8286778;28;20641;-64
2023/08/04 17:54:09;;;;;;;4.00;1.20;;;;;;;21.09;87.92;100545.75;8287651;28;20416;-62
2023/08/04 17:58:09;;;;;;;3.05;0.93;;;;;;;21.03;86.77;100547.44;8281756;28;20040;-62
2023/08/04 18:02:10;;;;;;;5.18;1.13;;;;;;;20.99;85.23;100553.56;8290493;28;20137;-62
2023/08/04 18:06:14;;;;;;;2.75;0.88;;;;;;;20.88;85.49;100545.84;8282072;28;20037;-62
2023/08/04 18:10:14;;;;;;;3.80;1.10;;;;;;;20.80;86.19;100551.56;8290192;28;20091;-62
2023/08/04 18:14:15;;;;;;;1.48;0.68;;;;;;;20.80;86.37;100552.38;8289918;28;20492;-62
2023/08/04 18:18:15;;;;;;;3.88;0.82;;;;;;;20.82;86.00;100554.94;8290705;28;20041;-62
2023/08/04 18:22:18;;;;;;;2.38;0.77;;;;;;;20.86;85.93;100558.97;8290579;28;20046;-62
2023/08/04 18:26:18;;;;;;;1.40;0.63;;;;;;;20.91;86.38;100560.03;8287313;28;20038;-63
2023/08/04 18:30:19;;;;;;;2.13;0.70;;;;;;;20.89;86.64;100555.81;8289662;28;20045;-63